createdAt,value
2022-10-25T00:02:40.013Z,4.00
2022-10-25T00:05:37.178Z,4.00
2022-10-25T00:08:33.988Z,6.00
2022-10-25T00:11:31.571Z,4.80
2022-10-25T00:14:29.474Z,4.00
2022-10-25T00:17:27.741Z,4.00
2022-10-25T00:20:24.926Z,4.00
2022-10-25T00:23:21.927Z,4.00
2022-10-25T00:26:19.514Z,6.80
2022-10-25T00:29:16.591Z,6.20
2022-10-25T00:32:13.901Z,6.60
2022-10-25T00:35:11.134Z,6.40
2022-10-25T00:38:08.021Z,9.00
2022-10-25T00:41:05.626Z,6.00
2022-10-25T00:44:41.153Z,6.20
2022-10-25T00:47:46.553Z,6.20
2022-10-25T00:50:47.945Z,6.40
2022-10-25T00:53:45.493Z,7.60
2022-10-25T00:56:44.085Z,6.80
2022-10-25T00:59:41.222Z,5.20
2022-10-25T01:02:38.591Z,4.80
2022-10-25T01:05:36.173Z,6.00
2022-10-25T01:08:34.232Z,6.40
2022-10-25T01:11:31.065Z,4.00
2022-10-25T01:14:28.181Z,4.00
2022-10-25T01:17:31.723Z,3.40
2022-10-25T01:20:45.812Z,4.00
2022-10-25T01:24:15.253Z,7.00
2022-10-25T01:27:16.450Z,4.80
2022-10-25T01:30:14.376Z,4.00
2022-10-25T01:33:34.010Z,3.00
2022-10-25T01:36:52.963Z,6.00
2022-10-25T01:40:17.072Z,3.00
2022-10-25T01:43:20.627Z,7.00
2022-10-25T01:46:25.829Z,4.40
2022-10-25T01:49:28.599Z,7.00
2022-10-25T01:52:25.263Z,6.00
2022-10-25T01:55:25.078Z,6.00
2022-10-25T01:58:43.904Z,6.40
2022-10-25T02:02:13.341Z,4.00
2022-10-25T02:05:29.900Z,4.00
2022-10-25T02:08:37.672Z,6.40
2022-10-25T02:11:35.097Z,4.00
2022-10-25T02:14:39.734Z,5.80
2022-10-25T02:17:49.591Z,7.80
2022-10-25T02:20:46.924Z,7.60
2022-10-25T02:23:44.025Z,6.00
2022-10-25T02:26:42.278Z,5.00
2022-10-25T02:29:39.074Z,7.00
2022-10-25T02:32:36.653Z,6.20
2022-10-25T02:35:34.288Z,6.20
2022-10-25T02:38:31.052Z,7.80
2022-10-25T02:41:28.377Z,6.60
2022-10-25T02:44:25.319Z,6.00
2022-10-25T02:47:22.147Z,6.40
2022-10-25T02:50:19.205Z,8.60
2022-10-25T02:53:16.234Z,5.80
2022-10-25T02:56:15.069Z,6.00
2022-10-25T02:59:15.291Z,8.00
2022-10-25T03:02:12.369Z,6.80
2022-10-25T03:05:09.466Z,6.20
2022-10-25T03:08:06.387Z,6.60
2022-10-25T03:11:03.382Z,6.00
2022-10-25T03:14:00.057Z,7.00
2022-10-25T03:16:57.526Z,8.00
2022-10-25T03:19:54.290Z,7.00
2022-10-25T03:22:51.294Z,6.40
2022-10-25T03:25:54.183Z,8.80
2022-10-25T03:28:51.469Z,6.60
2022-10-25T03:31:48.528Z,7.00
2022-10-25T03:34:45.433Z,7.00
2022-10-25T03:37:42.337Z,7.00
2022-10-25T03:40:39.156Z,8.20
2022-10-25T03:43:35.966Z,7.20
2022-10-25T03:46:33.401Z,7.00
2022-10-25T03:49:30.360Z,6.60
2022-10-25T03:52:27.250Z,4.00
2022-10-25T03:55:24.114Z,6.40
2022-10-25T03:58:21.016Z,7.00
2022-10-25T04:01:18.417Z,7.80
2022-10-25T04:04:15.242Z,6.40
2022-10-25T04:07:12.284Z,6.60
2022-10-25T04:10:09.318Z,5.60
2022-10-25T04:13:06.463Z,6.80
2022-10-25T04:16:07.057Z,4.00
2022-10-25T04:19:04.416Z,4.00
2022-10-25T04:22:02.594Z,3.00
2022-10-25T04:24:59.513Z,8.00
2022-10-25T04:27:57.957Z,6.80
2022-10-25T04:30:55.366Z,4.00
2022-10-25T04:33:53.116Z,7.00
2022-10-25T04:36:50.638Z,5.20
2022-10-25T04:39:47.312Z,8.80
2022-10-25T04:42:44.312Z,5.00
2022-10-25T04:45:41.243Z,7.40
2022-10-25T04:48:38.957Z,7.80
2022-10-25T04:51:36.083Z,7.00
2022-10-25T04:54:33.506Z,4.00
2022-10-25T04:57:30.101Z,6.00
2022-10-25T05:00:27.648Z,7.80
2022-10-25T05:03:25.680Z,7.00
2022-10-25T05:06:25.566Z,5.60
2022-10-25T05:09:22.350Z,8.00
2022-10-25T05:12:19.716Z,6.00
2022-10-25T05:15:16.601Z,7.80
2022-10-25T05:18:13.566Z,7.00
2022-10-25T05:21:10.131Z,8.00
2022-10-25T05:24:07.733Z,8.40
2022-10-25T05:27:05.588Z,7.00
2022-10-25T05:30:02.537Z,6.60
2022-10-25T05:33:02.756Z,6.00
2022-10-25T05:36:03.258Z,7.40
2022-10-25T05:39:01.117Z,7.00
2022-10-25T05:42:00.222Z,9.80
2022-10-25T05:44:58.485Z,9.00
2022-10-25T05:47:55.624Z,5.20
2022-10-25T05:51:03.380Z,7.80
2022-10-25T05:54:12.767Z,6.20
2022-10-25T05:57:09.219Z,6.80
2022-10-25T06:00:07.320Z,9.00
2022-10-25T06:03:04.323Z,8.00
2022-10-25T06:06:05.162Z,7.60
2022-10-25T06:09:02.529Z,10.20
2022-10-25T06:11:59.227Z,9.00
2022-10-25T06:14:56.051Z,6.40
2022-10-25T06:17:53.504Z,7.40
2022-10-25T06:20:50.533Z,7.80
2022-10-25T06:23:47.739Z,9.00
2022-10-25T06:26:44.523Z,7.00
2022-10-25T06:29:44.513Z,8.20
2022-10-25T06:32:41.467Z,6.40
2022-10-25T06:35:38.579Z,6.80
2022-10-25T06:38:35.554Z,9.00
2022-10-25T06:41:32.688Z,7.00
2022-10-25T06:44:29.335Z,8.40
2022-10-25T06:47:26.494Z,11.00
2022-10-25T06:50:23.609Z,8.00
2022-10-25T06:53:20.316Z,7.20
2022-10-25T06:56:17.343Z,7.00
2022-10-25T06:59:14.168Z,7.80
2022-10-25T07:02:11.750Z,7.00
2022-10-25T07:05:08.599Z,6.00
2022-10-25T07:08:05.801Z,7.60
2022-10-25T07:11:02.549Z,6.00
2022-10-25T07:13:59.884Z,6.00
2022-10-25T07:16:57.670Z,5.80
2022-10-25T07:19:54.353Z,6.20
2022-10-25T07:22:51.419Z,6.80
2022-10-25T07:25:48.325Z,7.40
2022-10-25T07:28:46.449Z,6.00
2022-10-25T07:31:44.425Z,3.60
2022-10-25T07:34:41.388Z,6.00
2022-10-25T07:37:38.333Z,7.00
2022-10-25T07:40:35.617Z,6.00
2022-10-25T07:43:32.504Z,6.00
2022-10-25T07:46:29.581Z,6.00
2022-10-25T07:49:26.432Z,6.00
2022-10-25T07:52:23.772Z,6.00
2022-10-25T07:55:20.659Z,6.60
2022-10-25T07:58:17.490Z,6.00
2022-10-25T08:01:18.175Z,7.80
2022-10-25T08:04:15.558Z,8.40
2022-10-25T08:07:12.483Z,8.00
2022-10-25T08:10:09.821Z,6.20
2022-10-25T08:13:06.414Z,6.80
2022-10-25T08:16:03.582Z,7.00
2022-10-25T08:19:00.626Z,6.00
2022-10-25T08:21:57.149Z,7.60
2022-10-25T08:24:54.627Z,4.60
2022-10-25T08:27:51.558Z,8.00
2022-10-25T08:30:48.588Z,6.80
2022-10-25T08:33:47.797Z,7.20
2022-10-25T08:36:44.685Z,6.00
2022-10-25T08:39:41.595Z,7.60
2022-10-25T08:42:55.879Z,7.40
2022-10-25T08:46:28.512Z,9.00
2022-10-25T08:49:49.485Z,6.00
2022-10-25T08:52:54.110Z,8.00
2022-10-25T08:56:15.571Z,7.00
2022-10-25T08:59:09.565Z,4.00
2022-10-25T09:02:13.496Z,3.60
2022-10-25T09:05:37.626Z,7.00
2022-10-25T09:09:20.603Z,7.60
2022-10-25T09:12:32.921Z,7.00
2022-10-25T09:15:39.100Z,8.00
2022-10-25T09:18:48.903Z,8.00
2022-10-25T09:21:50.365Z,7.20
2022-10-25T09:25:18.328Z,5.80
2022-10-25T09:28:19.163Z,7.20
2022-10-25T09:31:19.484Z,8.00
2022-10-25T09:34:17.546Z,6.60
2022-10-25T09:37:18.166Z,7.00
2022-10-25T09:40:21.578Z,7.40
2022-10-25T09:43:20.326Z,5.20
2022-10-25T09:46:32.093Z,4.20
2022-10-25T09:49:41.084Z,7.40
2022-10-25T09:53:18.823Z,4.60
2022-10-25T09:56:21.636Z,6.60
2022-10-25T09:59:18.274Z,5.40
2022-10-25T10:02:18.133Z,7.00
2022-10-25T10:05:17.189Z,4.00
2022-10-25T10:08:14.247Z,7.00
2022-10-25T10:11:14.609Z,4.00
2022-10-25T10:14:36.063Z,5.80
2022-10-25T10:17:33.463Z,5.20
2022-10-25T10:20:30.322Z,7.00
2022-10-25T10:23:46.634Z,4.00
2022-10-25T10:26:54.396Z,4.80
2022-10-25T10:30:01.475Z,7.00
2022-10-25T10:33:00.466Z,4.00
2022-10-25T10:35:57.910Z,4.60
2022-10-25T10:38:54.770Z,5.40
2022-10-25T10:42:03.279Z,3.60
2022-10-25T10:45:00.623Z,3.00
2022-10-25T10:47:58.100Z,7.40
2022-10-25T10:50:55.418Z,7.00
2022-10-25T10:53:52.933Z,7.00
2022-10-25T10:56:57.357Z,4.00
2022-10-25T10:59:56.062Z,5.20
2022-10-25T11:02:54.387Z,5.80
2022-10-25T11:05:53.737Z,7.00
2022-10-25T11:09:24.197Z,7.00
2022-10-25T11:12:22.317Z,4.60
2022-10-25T11:15:19.561Z,7.20
2022-10-25T11:18:16.531Z,5.00
2022-10-25T11:21:35.685Z,5.00
2022-10-25T11:24:51.572Z,7.00
2022-10-25T11:28:13.137Z,4.60
2022-10-25T11:31:26.006Z,7.00
2022-10-25T11:34:31.618Z,4.40
2022-10-25T11:37:28.564Z,5.00
2022-10-25T11:40:35.995Z,4.00
2022-10-25T11:43:54.289Z,3.00
2022-10-25T11:47:13.151Z,2.40
2022-10-25T11:50:26.913Z,5.00
2022-10-25T11:53:57.363Z,4.00
2022-10-25T11:57:16.248Z,5.80
2022-10-25T12:00:23.998Z,3.00
2022-10-25T12:03:35.755Z,4.80
2022-10-25T12:06:35.547Z,3.00
2022-10-25T12:09:38.998Z,4.00
2022-10-25T12:12:56.907Z,3.00
2022-10-25T12:15:54.971Z,1.00
2022-10-25T12:18:57.263Z,3.20
2022-10-25T12:22:08.319Z,3.00
2022-10-25T12:25:08.693Z,3.00
2022-10-25T12:28:44.987Z,2.60
2022-10-25T12:32:08.822Z,3.20
2022-10-25T12:35:07.182Z,3.00
2022-10-25T12:38:15.880Z,4.00
2022-10-25T12:41:22.043Z,3.20
2022-10-25T12:45:03.918Z,3.00
2022-10-25T12:48:10.379Z,4.00
2022-10-25T12:51:19.044Z,2.40
2022-10-25T12:54:43.796Z,3.00
2022-10-25T12:57:48.271Z,2.20
2022-10-25T13:01:10.675Z,3.00
2022-10-25T13:04:32.702Z,4.00
2022-10-25T13:07:31.704Z,4.00
2022-10-25T13:10:28.686Z,4.60
2022-10-25T13:13:26.751Z,3.40
2022-10-25T13:16:29.753Z,3.60
2022-10-25T13:22:48.352Z,4.40
2022-10-25T13:25:48.511Z,4.60
2022-10-25T13:28:50.354Z,4.80
2022-10-25T13:31:48.074Z,2.00
2022-10-25T13:34:44.565Z,4.00
2022-10-25T13:37:42.739Z,4.00
2022-10-25T13:40:39.854Z,4.00
2022-10-25T13:43:37.313Z,2.60
2022-10-25T13:46:37.689Z,3.40
2022-10-25T13:49:42.594Z,4.00
2022-10-25T13:52:39.646Z,5.00
2022-10-25T13:55:38.373Z,4.20
2022-10-25T13:58:38.485Z,3.80
2022-10-25T14:01:35.954Z,4.00
2022-10-25T14:04:34.697Z,4.00
2022-10-25T14:07:41.094Z,4.00
2022-10-25T14:10:38.211Z,3.40
2022-10-25T14:14:14.498Z,3.00
2022-10-25T14:17:11.402Z,3.60
2022-10-25T14:20:28.029Z,3.60
2022-10-25T14:23:30.432Z,3.80
2022-10-25T14:26:27.990Z,3.60
2022-10-25T14:29:26.274Z,2.20
2022-10-25T14:32:24.001Z,3.20
2022-10-25T14:35:21.114Z,3.60
2022-10-25T14:38:21.975Z,3.00
2022-10-25T14:41:26.842Z,2.00
2022-10-25T14:44:30.438Z,3.60
2022-10-25T14:47:29.850Z,4.00
2022-10-25T14:50:26.798Z,3.20
2022-10-25T14:53:23.945Z,2.00
2022-10-25T14:56:22.931Z,4.20
2022-10-25T14:59:47.740Z,4.00
2022-10-25T15:02:44.477Z,3.00
2022-10-25T15:05:41.816Z,2.80
2022-10-25T15:08:39.330Z,5.00
2022-10-25T15:11:36.821Z,0.20
2022-10-25T15:14:33.789Z,2.60
2022-10-25T15:17:31.079Z,3.00
2022-10-25T15:20:28.714Z,4.00
2022-10-25T15:23:25.923Z,1.80
2022-10-25T15:26:34.628Z,2.00
2022-10-25T15:29:42.786Z,2.00
2022-10-25T15:32:39.571Z,2.80
2022-10-25T15:35:49.940Z,3.40
2022-10-25T15:39:07.176Z,4.00
2022-10-25T15:42:03.854Z,5.00
2022-10-25T15:45:01.021Z,4.40
2022-10-25T15:47:58.650Z,4.00
2022-10-25T15:50:56.409Z,2.00
2022-10-25T15:53:54.198Z,3.80
2022-10-25T15:56:51.809Z,3.60
2022-10-25T15:59:48.814Z,6.40
2022-10-25T16:02:46.039Z,4.00
2022-10-25T16:05:43.828Z,5.00
2022-10-25T16:08:41.537Z,4.00
2022-10-25T16:11:39.108Z,3.00
2022-10-25T16:14:35.901Z,5.00
2022-10-25T16:17:32.629Z,3.00
2022-10-25T16:20:30.724Z,3.00
2022-10-25T16:23:28.323Z,2.40
2022-10-25T16:26:37.097Z,3.60
2022-10-25T16:29:34.288Z,1.00
2022-10-25T16:32:30.871Z,2.80
2022-10-25T16:35:27.915Z,3.00
2022-10-25T16:38:25.126Z,3.80
2022-10-25T16:41:29.337Z,3.00
2022-10-25T16:44:26.987Z,3.00
2022-10-25T16:47:24.035Z,3.60
2022-10-25T16:50:23.666Z,3.40
2022-10-25T16:53:21.088Z,4.00
2022-10-25T16:56:17.962Z,2.00
2022-10-25T16:59:15.094Z,3.00
2022-10-25T17:02:16.733Z,4.00
2022-10-25T17:05:18.298Z,8.80
2022-10-25T17:08:15.102Z,2.80
2022-10-25T17:11:12.713Z,5.00
2022-10-25T17:14:10.067Z,4.60
2022-10-25T17:17:06.981Z,5.00
2022-10-25T17:20:04.287Z,5.00
2022-10-25T17:23:00.976Z,3.00
2022-10-25T17:25:58.609Z,7.40
2022-10-25T17:28:57.916Z,8.00
2022-10-25T17:31:56.092Z,5.20
2022-10-25T17:34:53.806Z,9.00
2022-10-25T17:37:54.234Z,8.40
2022-10-25T17:40:50.898Z,7.00
2022-10-25T17:43:48.580Z,7.60
2022-10-25T17:46:47.106Z,7.60
2022-10-25T17:49:43.861Z,7.00
2022-10-25T17:52:42.366Z,4.40
2022-10-25T17:55:41.075Z,5.40
2022-10-25T17:58:38.182Z,4.00
2022-10-25T18:01:35.350Z,5.60
2022-10-25T18:04:45.799Z,5.00
2022-10-25T18:07:50.136Z,5.00
2022-10-25T18:10:48.141Z,5.40
2022-10-25T18:13:45.411Z,5.00
2022-10-25T18:16:42.646Z,7.00
2022-10-25T18:19:40.082Z,4.00
2022-10-25T18:22:36.917Z,5.00
2022-10-25T18:25:33.726Z,5.40
2022-10-25T18:28:32.280Z,7.20
2022-10-25T18:31:30.882Z,6.60
2022-10-25T18:34:28.254Z,8.80
2022-10-25T18:37:25.397Z,5.40
2022-10-25T18:40:22.781Z,8.40
2022-10-25T18:43:20.283Z,4.80
2022-10-25T18:46:17.088Z,5.20
2022-10-25T18:49:14.477Z,7.60
2022-10-25T18:52:12.126Z,6.00
2022-10-25T18:55:09.178Z,7.00
2022-10-25T18:58:05.789Z,7.40
2022-10-25T19:01:08.023Z,8.00
2022-10-25T19:04:05.169Z,9.40
2022-10-25T19:07:02.326Z,9.00
2022-10-25T19:09:58.957Z,8.00
2022-10-25T19:12:55.883Z,10.60
2022-10-25T19:15:52.687Z,15.20
2022-10-25T19:18:50.239Z,9.80
2022-10-25T19:21:46.889Z,9.80
2022-10-25T19:24:43.889Z,9.00
2022-10-25T19:27:41.028Z,14.40
2022-10-25T19:30:39.065Z,12.80
2022-10-25T19:33:36.028Z,9.20
2022-10-25T19:36:33.321Z,12.00
2022-10-25T19:39:34.020Z,14.00
2022-10-25T19:42:31.091Z,14.40
2022-10-25T19:45:28.266Z,12.00
2022-10-25T19:48:25.300Z,9.00
2022-10-25T19:51:22.207Z,12.00
2022-10-25T19:54:18.969Z,10.80
2022-10-25T19:57:16.048Z,11.40
2022-10-25T20:00:13.759Z,8.00
2022-10-25T20:03:10.951Z,7.00
2022-10-25T20:06:09.884Z,7.00
2022-10-25T20:09:07.077Z,9.00
2022-10-25T20:12:04.056Z,9.00
2022-10-25T20:15:01.372Z,7.00
2022-10-25T20:17:59.271Z,9.00
2022-10-25T20:21:00.954Z,9.40
2022-10-25T20:24:00.119Z,15.00
2022-10-25T20:26:57.229Z,23.40
2022-10-25T20:29:54.164Z,22.60
2022-10-25T20:32:51.380Z,16.40
2022-10-25T20:35:47.928Z,20.20
2022-10-25T20:38:45.825Z,9.00
2022-10-25T20:41:43.444Z,13.20
2022-10-25T20:44:40.172Z,13.40
2022-10-25T20:47:37.123Z,13.80
2022-10-25T20:50:34.068Z,16.60
2022-10-25T20:53:31.074Z,19.80
2022-10-25T20:56:28.005Z,19.80
2022-10-25T20:59:25.562Z,15.60
2022-10-25T21:02:23.144Z,12.00
2022-10-25T21:05:20.456Z,14.00
2022-10-25T21:08:17.027Z,14.40
2022-10-25T21:11:14.333Z,12.40
2022-10-25T21:14:11.851Z,12.40
2022-10-25T21:17:09.280Z,11.00
2022-10-25T21:20:06.932Z,1.40
2022-10-25T21:23:04.293Z,12.80
2022-10-25T21:26:05.572Z,12.00
2022-10-25T21:29:06.576Z,6.00
2022-10-25T21:32:04.196Z,11.00
2022-10-25T21:35:01.171Z,14.80
2022-10-25T21:38:00.147Z,14.40
2022-10-25T21:41:06.083Z,18.80
2022-10-25T21:44:03.229Z,14.20
2022-10-25T21:47:00.085Z,13.40
2022-10-25T21:49:57.533Z,13.00
2022-10-25T21:52:54.162Z,13.00
2022-10-25T21:55:51.301Z,11.80
2022-10-25T21:58:49.874Z,18.00
2022-10-25T22:01:47.167Z,16.80
2022-10-25T22:04:44.127Z,16.60
2022-10-25T22:07:41.100Z,14.80
2022-10-25T22:10:38.213Z,16.40
2022-10-25T22:13:35.245Z,16.40
2022-10-25T22:16:33.194Z,14.40
2022-10-25T22:19:30.236Z,14.40
2022-10-25T22:22:27.208Z,15.20
2022-10-25T22:25:23.935Z,13.60
2022-10-25T22:28:21.344Z,14.80
2022-10-25T22:31:18.832Z,16.40
2022-10-25T22:34:15.852Z,13.80
2022-10-25T22:37:13.290Z,15.80
2022-10-25T22:40:10.770Z,14.00
2022-10-25T22:43:08.078Z,14.00
2022-10-25T22:46:06.332Z,17.00
2022-10-25T22:49:07.879Z,16.80
2022-10-25T22:52:05.109Z,16.60
2022-10-25T22:55:02.142Z,14.20
2022-10-25T22:57:59.492Z,15.40
2022-10-25T23:01:06.613Z,18.00
2022-10-25T23:04:05.794Z,17.00
2022-10-25T23:07:03.533Z,14.80
2022-10-25T23:10:00.636Z,14.00
2022-10-25T23:12:58.240Z,17.00
2022-10-25T23:15:54.917Z,13.00
2022-10-25T23:18:53.185Z,13.60
2022-10-25T23:21:50.427Z,15.20
2022-10-25T23:24:47.294Z,15.60
2022-10-25T23:27:44.205Z,12.20
2022-10-25T23:30:41.537Z,13.00
2022-10-25T23:33:38.542Z,12.80
2022-10-25T23:36:37.823Z,11.60
2022-10-25T23:39:36.257Z,12.00
2022-10-25T23:42:33.225Z,8.80
2022-10-25T23:45:32.191Z,12.20
2022-10-25T23:48:29.140Z,11.60
2022-10-25T23:51:26.430Z,13.60
2022-10-25T23:54:23.477Z,11.00
2022-10-25T23:57:19.989Z,13.00
